Time;durP1;ratioP1;P1;durP2;ratioP2;P2;SDS_P1;SDS_P2;PMS_P1;PMS_P2;Temp;Humidity;BMP_temperature;BMP_pressure;BME280_temperature;BME280_humidity;BME280_pressure;Samples;Min_cycle;Max_cycle;Signal;HPM_P1;HPM_P2
2022/09/06 00:02:14;;;;;;;3.55;2.55;;;14.50;99.90;;;;;;5033026;28;20101;-72
2022/09/06 00:04:40;;;;;;;5.72;2.92;;;14.40;99.90;;;;;;5034347;28;20071;-72
2022/09/06 00:07:05;;;;;;;5.82;2.72;;;14.40;99.90;;;;;;5034195;28;20101;-72
2022/09/06 00:09:31;;;;;;;4.45;2.85;;;14.30;99.90;;;;;;5034057;28;20036;-72
2022/09/06 00:11:57;;;;;;;4.40;2.90;;;14.20;99.90;;;;;;5034087;28;20100;-72
2022/09/06 00:14:23;;;;;;;3.22;2.40;;;14.10;99.90;;;;;;5032878;28;20075;-72
2022/09/06 00:16:49;;;;;;;5.47;2.75;;;14.10;99.90;;;;;;5034309;28;20039;-72
2022/09/06 00:19:16;;;;;;;3.20;2.33;;;14.00;99.90;;;;;;5033881;28;20515;-72
2022/09/06 00:21:41;;;;;;;3.90;2.30;;;14.00;99.90;;;;;;5032642;28;20030;-71
2022/09/06 00:24:07;;;;;;;4.60;2.70;;;14.00;99.90;;;;;;5031877;28;20033;-72
2022/09/06 00:26:34;;;;;;;3.35;2.50;;;14.10;99.90;;;;;;5033504;28;20037;-72
2022/09/06 00:29:00;;;;;;;3.63;2.55;;;14.10;99.90;;;;;;5033691;28;20029;-72
2022/09/06 00:31:26;;;;;;;4.50;2.55;;;14.00;99.90;;;;;;5034006;28;20021;-72
2022/09/06 00:33:52;;;;;;;4.35;2.33;;;14.00;99.90;;;;;;5033652;28;20033;-72
2022/09/06 00:36:19;;;;;;;3.60;2.40;;;13.90;99.90;;;;;;5033654;28;20030;-72
2022/09/06 00:38:46;;;;;;;4.75;2.55;;;14.00;99.90;;;;;;5033514;28;20029;-72
2022/09/06 00:41:14;;;;;;;4.68;2.92;;;14.00;99.90;;;;;;5032295;28;20025;-71
2022/09/06 00:43:40;;;;;;;4.38;2.85;;;14.00;99.90;;;;;;5033795;28;20033;-72
2022/09/06 00:46:09;;;;;;;6.53;2.88;;;14.00;99.90;;;;;;5033509;28;20097;-72
2022/09/06 00:48:38;;;;;;;3.75;2.72;;;14.00;99.90;;;;;;5033399;28;20022;-71
2022/09/06 00:51:07;;;;;;;4.20;2.72;;;14.00;99.90;;;;;;5033384;28;20022;-71
2022/09/06 00:53:32;;;;;;;4.15;2.55;;;14.00;99.90;;;;;;5032942;28;20033;-71
2022/09/06 00:55:59;;;;;;;4.38;2.58;;;14.00;99.90;;;;;;5033362;28;20052;-72
2022/09/06 00:58:26;;;;;;;4.05;2.35;;;14.00;99.90;;;;;;5033275;28;20032;-72
2022/09/06 01:00:52;;;;;;;4.57;2.80;;;14.00;99.90;;;;;;5033303;28;20108;-72
2022/09/06 01:03:20;;;;;;;5.18;2.47;;;14.00;99.90;;;;;;5033230;28;20112;-72
2022/09/06 01:05:57;;;;;;;5.45;2.42;;;13.90;99.90;;;;;;5033527;28;20029;-71
2022/09/06 01:08:50;;;;;;;4.00;2.50;;;13.90;99.90;;;;;;5033180;28;20025;-72
2022/09/06 01:11:28;;;;;;;4.32;2.40;;;13.90;99.90;;;;;;5015516;28;20115;-72
2022/09/06 01:14:27;;;;;;;5.85;2.55;;;13.80;99.90;;;;;;5033189;28;20057;-72
2022/09/06 01:17:11;;;;;;;5.45;2.50;;;13.80;99.90;;;;;;5034223;28;20362;-72
2022/09/06 01:20:08;;;;;;;4.80;2.50;;;13.80;99.90;;;;;;5033551;28;20051;-72
2022/09/06 01:23:03;;;;;;;5.00;2.90;;;13.80;99.90;;;;;;5033081;28;20025;-71
2022/09/06 01:25:57;;;;;;;7.00;2.67;;;13.80;99.90;;;;;;5033003;28;20472;-71
2022/09/06 01:28:38;;;;;;;5.90;2.85;;;13.70;99.90;;;;;;5031708;28;20029;-71
2022/09/06 01:31:39;;;;;;;6.82;2.75;;;13.60;99.90;;;;;;5033553;28;20022;-71
2022/09/06 01:34:04;;;;;;;5.68;2.67;;;13.50;99.90;;;;;;5032941;28;20120;-72
2022/09/06 01:36:47;;;;;;;3.63;2.35;;;13.40;99.90;;;;;;5032948;28;20065;-72
2022/09/06 01:39:26;;;;;;;4.65;2.53;;;13.40;99.90;;;;;;5032818;28;20029;-72
2022/09/06 01:41:53;;;;;;;3.08;2.28;;;13.40;99.90;;;;;;5033426;28;20029;-72
2022/09/06 01:44:21;;;;;;;5.65;2.80;;;13.40;99.90;;;;;;5033063;28;20029;-72
2022/09/06 01:46:55;;;;;;;4.47;2.40;;;13.40;99.90;;;;;;5033099;28;20021;-72
2022/09/06 01:49:35;;;;;;;4.82;2.70;;;13.40;99.90;;;;;;5033108;28;20436;-72
2022/09/06 01:52:19;;;;;;;4.15;2.88;;;13.40;99.90;;;;;;5033323;28;20485;-72
2022/09/06 01:55:09;;;;;;;3.70;2.80;;;13.50;99.90;;;;;;5031501;28;20033;-72
2022/09/06 01:57:53;;;;;;;4.20;2.80;;;13.40;99.90;;;;;;5031501;28;20560;-72
2022/09/06 02:00:21;;;;;;;4.03;3.03;;;13.40;99.90;;;;;;5033287;28;20040;-72
2022/09/06 02:02:52;;;;;;;4.53;2.70;;;13.50;99.90;;;;;;5032946;28;20035;-72
2022/09/06 02:05:30;;;;;;;4.82;2.42;;;13.40;99.90;;;;;;5033462;28;20362;-72
2022/09/06 02:08:03;;;;;;;4.68;2.83;;;13.40;99.90;;;;;;5036386;28;20028;-72
2022/09/06 02:10:31;;;;;;;4.13;2.75;;;13.40;99.90;;;;;;5035155;28;20432;-72
2022/09/06 02:13:00;;;;;;;3.70;2.65;;;13.40;99.90;;;;;;5036387;28;20025;-72
2022/09/06 02:15:31;;;;;;;5.53;3.13;;;13.40;99.90;;;;;;5036345;28;20029;-72
2022/09/06 02:18:01;;;;;;;5.10;3.58;;;13.30;99.90;;;;;;5036530;28;20033;-71
2022/09/06 02:20:32;;;;;;;7.75;5.30;;;13.30;99.90;;;;;;5036536;28;20026;-72
2022/09/06 02:23:02;;;;;;;8.75;5.72;;;13.30;99.90;;;;;;5036265;28;20022;-72
2022/09/06 02:25:40;;;;;;;8.23;4.73;;;13.30;99.90;;;;;;5036034;28;20029;-72
2022/09/06 02:28:08;;;;;;;4.35;2.53;;;13.20;99.90;;;;;;5036205;28;20492;-72
2022/09/06 02:30:47;;;;;;;3.67;2.67;;;13.10;99.90;;;;;;5035956;28;20025;-72
2022/09/06 02:33:18;;;;;;;3.92;2.75;;;13.00;99.90;;;;;;5036260;28;20436;-72
2022/09/06 02:35:51;;;;;;;3.90;2.70;;;12.90;99.90;;;;;;5036207;28;20025;-72
2022/09/06 02:38:19;;;;;;;6.13;2.70;;;12.90;99.90;;;;;;5036328;28;20060;-72
2022/09/06 02:40:46;;;;;;;4.63;2.60;;;12.90;99.90;;;;;;5034596;28;20056;-72
2022/09/06 02:43:12;;;;;;;4.55;2.67;;;12.90;99.90;;;;;;5035729;28;20029;-72
2022/09/06 02:45:38;;;;;;;8.23;3.03;;;12.80;99.90;;;;;;5034356;28;20029;-72
2022/09/06 02:48:04;;;;;;;6.13;2.83;;;12.80;99.90;;;;;;5035711;28;20025;-72
2022/09/06 02:50:29;;;;;;;3.83;2.65;;;12.70;99.90;;;;;;5035930;28;20496;-72
2022/09/06 02:53:06;;;;;;;3.78;2.75;;;12.70;99.90;;;;;;5035660;28;20478;-71
2022/09/06 02:55:32;;;;;;;3.47;2.50;;;12.70;99.90;;;;;;5034228;28;20470;-72
2022/09/06 02:57:58;;;;;;;4.70;2.63;;;12.70;99.90;;;;;;5035481;28;20116;-72
2022/09/06 03:00:24;;;;;;;3.63;2.70;;;12.70;99.90;;;;;;5034278;28;20440;-72
2022/09/06 03:02:50;;;;;;;5.90;2.85;;;12.70;99.90;;;;;;5035517;28;20490;-72
2022/09/06 03:05:16;;;;;;;3.35;2.40;;;12.70;99.90;;;;;;5035252;28;20029;-72
2022/09/06 03:07:41;;;;;;;3.65;2.30;;;12.70;99.90;;;;;;5035214;28;20570;-72
2022/09/06 03:10:07;;;;;;;6.00;2.70;;;12.60;99.90;;;;;;5034287;28;20040;-72
2022/09/06 03:12:33;;;;;;;6.57;2.53;;;12.50;99.90;;;;;;5035473;28;20474;-72
2022/09/06 03:14:59;;;;;;;4.75;2.70;;;12.50;99.90;;;;;;5035441;28;20072;-72
2022/09/06 03:17:24;;;;;;;4.38;3.05;;;12.50;99.90;;;;;;5035015;28;20029;-72
2022/09/06 03:19:50;;;;;;;3.65;2.70;;;12.60;99.90;;;;;;5035226;28;20059;-72
2022/09/06 03:22:16;;;;;;;5.80;2.78;;;12.50;99.90;;;;;;5035084;28;20040;-72
2022/09/06 03:24:41;;;;;;;4.00;2.65;;;12.50;99.90;;;;;;5034924;28;20032;-72
2022/09/06 03:27:07;;;;;;;5.78;2.78;;;12.50;99.90;;;;;;5034241;28;20037;-72
2022/09/06 03:29:33;;;;;;;4.05;2.67;;;12.40;99.90;;;;;;5034966;28;20389;-72
2022/09/06 03:31:58;;;;;;;10.02;2.80;;;12.40;99.90;;;;;;5034860;28;20482;-72
2022/09/06 03:34:24;;;;;;;4.18;3.03;;;12.40;99.90;;;;;;5034686;28;20401;-72
2022/09/06 03:36:50;;;;;;;4.18;2.80;;;12.50;99.90;;;;;;5033822;28;20441;-72
2022/09/06 03:39:15;;;;;;;3.78;3.00;;;12.50;99.90;;;;;;5034696;28;20034;-72
2022/09/06 03:41:41;;;;;;;4.95;3.17;;;12.40;99.90;;;;;;5033400;28;20405;-72
2022/09/06 03:44:06;;;;;;;3.88;2.65;;;12.50;99.90;;;;;;5033496;28;20546;-72
2022/09/06 03:46:32;;;;;;;3.70;2.83;;;12.50;99.90;;;;;;5033642;28;20404;-73
2022/09/06 03:48:58;;;;;;;3.83;2.70;;;12.50;99.90;;;;;;5033419;28;20056;-72
2022/09/06 03:51:24;;;;;;;3.58;2.80;;;12.40;99.90;;;;;;5034474;28;20021;-72
2022/09/06 03:53:50;;;;;;;3.53;2.55;;;12.40;99.90;;;;;;5034952;28;20038;-72
2022/09/06 03:56:16;;;;;;;5.38;3.00;;;12.30;99.90;;;;;;5016661;28;20116;-72
2022/09/06 03:58:41;;;;;;;3.75;2.70;;;12.30;99.90;;;;;;5034521;28;20056;-72
2022/09/06 04:01:09;;;;;;;5.28;2.78;;;12.20;99.90;;;;;;5034533;28;20489;-72
2022/09/06 04:03:35;;;;;;;4.07;3.20;;;12.10;99.90;;;;;;5034169;28;20063;-72
2022/09/06 04:06:02;;;;;;;4.10;3.13;;;12.10;99.90;;;;;;5034441;28;20473;-72
2022/09/06 04:08:28;;;;;;;5.13;2.90;;;12.10;99.90;;;;;;5034631;28;20046;-72
2022/09/06 04:10:55;;;;;;;4.60;2.80;;;12.10;99.90;;;;;;5034056;28;20140;-72
2022/09/06 04:13:22;;;;;;;4.93;3.08;;;12.10;99.90;;;;;;5032797;28;20029;-72
2022/09/06 04:15:48;;;;;;;3.83;2.88;;;12.10;99.90;;;;;;5034264;28;20025;-72
2022/09/06 04:18:14;;;;;;;4.32;2.72;;;12.10;99.90;;;;;;5033853;28;20025;-72
2022/09/06 04:20:40;;;;;;;3.85;2.42;;;12.10;99.90;;;;;;5033892;28;20027;-72
2022/09/06 04:23:06;;;;;;;7.18;3.50;;;12.10;99.90;;;;;;5034121;28;20033;-72
2022/09/06 04:25:32;;;;;;;8.63;2.90;;;12.00;99.90;;;;;;5032835;28;20034;-72
2022/09/06 04:27:58;;;;;;;4.00;2.92;;;11.90;99.90;;;;;;5033286;28;20044;-72
2022/09/06 04:30:24;;;;;;;4.75;3.15;;;11.90;99.90;;;;;;5033979;28;20397;-72
2022/09/06 04:32:49;;;;;;;5.28;3.28;;;11.90;99.90;;;;;;5033042;28;20033;-72
2022/09/06 04:35:15;;;;;;;5.88;3.15;;;11.80;99.90;;;;;;5016122;28;20037;-72
2022/09/06 04:37:41;;;;;;;6.20;3.20;;;11.80;99.90;;;;;;5033866;28;20068;-72
2022/09/06 04:40:07;;;;;;;5.43;3.20;;;11.80;99.90;;;;;;5033866;28;20120;-72
2022/09/06 04:42:32;;;;;;;4.00;3.00;;;11.80;99.90;;;;;;5033870;28;20049;-72
2022/09/06 04:44:58;;;;;;;5.63;2.80;;;11.80;99.90;;;;;;5033677;28;20038;-72
2022/09/06 04:47:24;;;;;;;4.57;3.10;;;11.90;99.90;;;;;;5032963;28;20022;-72
2022/09/06 04:49:50;;;;;;;4.47;2.80;;;11.90;99.90;;;;;;5033475;28;20025;-72
2022/09/06 04:52:16;;;;;;;4.15;2.80;;;11.90;99.90;;;;;;5033620;28;20026;-72
2022/09/06 04:54:42;;;;;;;4.82;3.47;;;12.00;99.90;;;;;;5033579;28;20029;-72
2022/09/06 04:57:08;;;;;;;7.60;3.85;;;12.00;99.90;;;;;;5032542;28;20037;-72
2022/09/06 04:59:34;;;;;;;6.55;3.10;;;12.00;99.90;;;;;;5033415;28;20029;-73
2022/09/06 05:01:59;;;;;;;5.85;3.30;;;12.00;99.90;;;;;;5016105;28;20525;-72
2022/09/06 05:04:25;;;;;;;5.07;3.65;;;12.10;99.90;;;;;;5033213;28;20512;-72
2022/09/06 05:07:01;;;;;;;4.93;3.60;;;12.00;99.90;;;;;;5033578;28;20477;-72
2022/09/06 05:09:26;;;;;;;4.10;3.20;;;12.00;99.90;;;;;;5033419;28;20104;-73
2022/09/06 05:11:52;;;;;;;5.18;3.42;;;12.10;99.90;;;;;;5032081;28;20060;-72
2022/09/06 05:14:18;;;;;;;4.70;3.50;;;12.10;99.90;;;;;;5032161;28;20422;-72
2022/09/06 05:16:45;;;;;;;5.82;3.10;;;12.10;99.90;;;;;;5033091;28;20025;-72
2022/09/06 05:19:11;;;;;;;5.15;3.22;;;12.10;99.90;;;;;;5031889;28;20113;-72
2022/09/06 05:21:38;;;;;;;7.20;3.60;;;12.10;99.90;;;;;;5032004;28;20049;-72
2022/09/06 05:24:04;;;;;;;6.65;3.63;;;12.20;99.90;;;;;;5032950;28;20060;-72
2022/09/06 05:26:30;;;;;;;6.70;3.60;;;12.20;99.90;;;;;;5033615;28;20100;-72
2022/09/06 05:28:55;;;;;;;7.93;3.53;;;12.30;99.90;;;;;;5032999;28;20101;-73
2022/09/06 05:31:29;;;;;;;6.93;3.67;;;12.30;99.90;;;;;;5031714;28;20084;-73
2022/09/06 05:33:56;;;;;;;4.55;3.65;;;12.40;99.90;;;;;;5032971;28;20045;-72
2022/09/06 05:36:23;;;;;;;5.93;3.67;;;12.40;99.90;;;;;;5032944;28;20025;-72
2022/09/06 05:38:53;;;;;;;5.00;3.38;;;12.40;99.90;;;;;;5033245;28;20034;-73
2022/09/06 05:41:19;;;;;;;4.13;3.50;;;12.40;99.90;;;;;;5036986;28;20032;-73
2022/09/06 05:43:45;;;;;;;6.13;4.10;;;12.40;99.90;;;;;;5036845;28;20421;-72
2022/09/06 05:46:11;;;;;;;6.22;4.20;;;12.50;99.90;;;;;;5036825;28;20030;-72
2022/09/06 05:48:37;;;;;;;7.25;4.07;;;12.50;99.90;;;;;;5036807;28;20017;-73
2022/09/06 05:51:11;;;;;;;5.38;3.40;;;12.50;99.90;;;;;;5037026;28;20488;-72
2022/09/06 05:53:39;;;;;;;7.95;4.30;;;12.50;99.90;;;;;;5036999;28;20102;-72
2022/09/06 05:56:05;;;;;;;6.60;4.18;;;12.50;99.90;;;;;;5035478;28;20433;-72
2022/09/06 05:58:31;;;;;;;6.30;4.10;;;12.60;99.90;;;;;;5035334;28;20040;-73
2022/09/06 06:01:03;;;;;;;6.20;4.20;;;12.50;99.90;;;;;;5036650;28;20037;-73
2022/09/06 06:03:29;;;;;;;7.25;4.53;;;12.50;99.90;;;;;;5035190;28;20053;-73
2022/09/06 06:05:55;;;;;;;4.93;4.20;;;12.50;99.90;;;;;;5036468;28;20029;-73
2022/09/06 06:08:20;;;;;;;6.03;4.03;;;12.60;99.90;;;;;;5035223;28;20581;-73
2022/09/06 06:10:46;;;;;;;5.20;4.03;;;12.60;99.90;;;;;;5036443;28;20022;-73
2022/09/06 06:13:11;;;;;;;5.45;3.40;;;12.60;99.90;;;;;;5036360;28;20109;-73
2022/09/06 06:15:37;;;;;;;5.63;3.90;;;12.60;99.90;;;;;;5036638;28;20108;-73
2022/09/06 06:18:03;;;;;;;5.32;3.90;;;12.70;99.90;;;;;;5036319;28;20060;-73
2022/09/06 06:20:28;;;;;;;7.97;3.70;;;12.70;99.90;;;;;;5036423;28;20495;-73
2022/09/06 06:22:54;;;;;;;10.38;4.18;;;12.80;99.90;;;;;;5036125;28;20056;-73
2022/09/06 06:25:24;;;;;;;9.07;4.63;;;12.80;99.90;;;;;;5036272;28;20037;-73
2022/09/06 06:27:51;;;;;;;7.50;5.03;;;12.90;99.90;;;;;;5036268;28;20108;-72
2022/09/06 06:30:16;;;;;;;12.95;5.65;;;12.90;99.90;;;;;;5036381;28;20045;-73
2022/09/06 06:32:42;;;;;;;9.27;5.15;;;13.00;99.90;;;;;;5036166;28;20041;-73
2022/09/06 06:35:08;;;;;;;7.43;4.40;;;13.00;99.90;;;;;;5036282;28;20057;-72
2022/09/06 06:37:34;;;;;;;8.10;4.60;;;13.10;99.90;;;;;;5036151;28;20036;-72
2022/09/06 06:40:00;;;;;;;11.50;5.13;;;13.10;99.90;;;;;;5034464;28;20033;-72
2022/09/06 06:42:25;;;;;;;7.53;5.20;;;13.20;99.90;;;;;;5035757;28;20549;-72
2022/09/06 06:44:54;;;;;;;9.05;4.55;;;13.20;99.90;;;;;;5036220;28;20045;-73
2022/09/06 06:47:20;;;;;;;7.82;5.30;;;13.20;99.90;;;;;;5034521;28;20030;-73
2022/09/06 06:49:47;;;;;;;7.22;4.75;;;13.10;99.90;;;;;;5034637;28;20041;-73
2022/09/06 06:52:12;;;;;;;7.10;4.55;;;13.20;99.90;;;;;;5033807;28;20030;-72
2022/09/06 06:54:38;;;;;;;9.60;5.70;;;13.20;99.90;;;;;;5036182;28;20026;-72
2022/09/06 06:57:04;;;;;;;12.63;6.18;;;13.20;99.90;;;;;;5034730;28;20040;-72
2022/09/06 06:59:30;;;;;;;9.68;5.45;;;13.20;99.90;;;;;;5034630;28;20034;-72
2022/09/06 07:01:56;;;;;;;10.70;5.75;;;13.20;99.90;;;;;;5036253;28;20084;-72
2022/09/06 07:04:21;;;;;;;9.27;5.43;;;13.20;99.90;;;;;;5034917;28;20350;-73
2022/09/06 07:06:54;;;;;;;7.95;5.45;;;13.20;99.90;;;;;;5035596;28;20017;-72
2022/09/06 07:09:21;;;;;;;8.27;6.05;;;13.30;99.90;;;;;;5035754;28;20029;-73
2022/09/06 07:11:47;;;;;;;8.40;5.80;;;13.30;99.90;;;;;;5035524;28;20029;-72
2022/09/06 07:14:17;;;;;;;11.80;6.75;;;13.40;99.90;;;;;;5035528;28;20470;-73
2022/09/06 07:16:43;;;;;;;12.20;6.28;;;13.50;99.90;;;;;;5035355;28;20061;-72
2022/09/06 07:19:11;;;;;;;9.50;5.82;;;13.50;99.90;;;;;;5035657;28;20037;-72
2022/09/06 07:21:37;;;;;;;11.48;7.05;;;13.50;99.90;;;;;;5033942;28;20038;-73
2022/09/06 07:24:06;;;;;;;9.25;6.22;;;13.50;99.90;;;;;;5035663;28;20152;-73
2022/09/06 07:26:32;;;;;;;10.73;6.88;;;13.60;99.90;;;;;;5035541;28;20131;-73
2022/09/06 07:29:00;;;;;;;10.27;6.20;;;13.60;99.90;;;;;;5035237;28;20025;-73
2022/09/06 07:31:27;;;;;;;11.32;6.40;;;13.70;99.90;;;;;;5035232;28;20108;-75
2022/09/06 07:33:53;;;;;;;9.50;6.72;;;13.70;99.90;;;;;;5035050;28;20057;-74
2022/09/06 07:36:18;;;;;;;8.90;6.00;;;13.80;99.90;;;;;;5035120;28;20069;-75
2022/09/06 07:38:48;;;;;;;9.30;6.03;;;13.80;99.90;;;;;;5035342;28;20032;-75
2022/09/06 07:41:16;;;;;;;7.90;6.18;;;13.90;99.90;;;;;;5035247;28;20026;-75
2022/09/06 07:43:42;;;;;;;8.35;5.80;;;14.00;99.90;;;;;;5035149;28;20459;-76
2022/09/06 07:46:10;;;;;;;8.43;5.90;;;14.10;99.90;;;;;;5033953;28;20079;-76
2022/09/06 07:48:39;;;;;;;7.88;5.82;;;14.10;99.90;;;;;;5035171;28;20072;-75
2022/09/06 07:51:04;;;;;;;8.07;5.65;;;14.20;99.90;;;;;;5035216;28;20018;-76
2022/09/06 07:53:31;;;;;;;8.00;6.20;;;14.30;99.90;;;;;;5035036;28;20022;-76
2022/09/06 07:56:00;;;;;;;9.70;6.30;;;14.40;99.90;;;;;;5033791;28;20026;-76
2022/09/06 07:58:28;;;;;;;11.10;5.68;;;14.50;99.90;;;;;;5035086;28;20095;-76
2022/09/06 08:00:53;;;;;;;9.50;7.13;;;14.60;99.90;;;;;;5034595;28;20530;-75
2022/09/06 08:03:19;;;;;;;13.02;6.95;;;14.60;99.90;;;;;;5033560;28;20104;-76
2022/09/06 08:05:49;;;;;;;10.95;6.60;;;14.70;99.90;;;;;;5034541;28;20028;-76
2022/09/06 08:08:14;;;;;;;13.43;7.68;;;14.70;99.90;;;;;;5033177;28;20026;-76
2022/09/06 08:10:40;;;;;;;10.85;7.28;;;14.70;99.90;;;;;;5034275;28;20051;-76
2022/09/06 08:13:06;;;;;;;11.90;7.40;;;14.70;99.90;;;;;;5034327;28;20482;-76
2022/09/06 08:15:32;;;;;;;9.98;7.00;;;14.60;99.90;;;;;;5034171;28;20397;-76
2022/09/06 08:17:57;;;;;;;9.95;6.38;;;14.60;99.90;;;;;;5034453;28;20029;-76
2022/09/06 08:20:23;;;;;;;8.70;5.95;;;14.60;99.90;;;;;;5033799;28;20036;-76
2022/09/06 08:22:49;;;;;;;7.35;5.68;;;14.70;99.90;;;;;;5036182;28;20029;-76
2022/09/06 08:25:14;;;;;;;8.48;5.95;;;14.70;99.90;;;;;;5035299;28;20026;-76
2022/09/06 08:27:40;;;;;;;11.43;6.03;;;14.80;99.90;;;;;;5034592;28;20025;-75
2022/09/06 08:30:06;;;;;;;6.82;5.20;;;14.80;99.90;;;;;;5034712;28;20385;-75
2022/09/06 08:32:35;;;;;;;13.93;7.85;;;14.80;99.90;;;;;;5034682;28;20041;-75
2022/09/06 08:35:00;;;;;;;18.70;11.68;;;14.90;99.90;;;;;;5034918;28;20437;-75
2022/09/06 08:37:26;;;;;;;19.48;12.15;;;15.00;99.90;;;;;;5034141;28;20453;-75
2022/09/06 08:39:52;;;;;;;14.23;10.27;;;15.00;99.90;;;;;;5034110;28;20044;-75
2022/09/06 08:42:18;;;;;;;14.05;9.25;;;15.10;99.90;;;;;;5034021;28;20033;-75
2022/09/06 08:44:51;;;;;;;11.60;8.52;;;15.20;99.90;;;;;;5032707;28;20064;-75
2022/09/06 08:47:19;;;;;;;9.52;7.60;;;15.30;99.90;;;;;;5034213;28;20017;-75
2022/09/06 08:49:54;;;;;;;12.23;7.28;;;15.30;99.90;;;;;;5033636;28;20060;-74
2022/09/06 08:52:28;;;;;;;7.55;6.07;;;15.40;99.90;;;;;;5032289;28;20025;-74
2022/09/06 08:55:03;;;;;;;8.15;6.75;;;15.50;99.90;;;;;;5033790;28;20029;-74
2022/09/06 08:57:53;;;;;;;8.93;6.05;;;15.60;99.90;;;;;;5033451;28;20083;-74
2022/09/06 09:00:19;;;;;;;9.25;6.35;;;15.60;99.90;;;;;;5032090;28;20485;-73
2022/09/06 09:03:11;;;;;;;9.60;5.95;;;15.70;99.90;;;;;;5033372;28;20072;-73
2022/09/06 09:05:39;;;;;;;7.75;5.55;;;15.70;99.90;;;;;;5033366;28;20075;-73
2022/09/06 09:08:17;;;;;;;5.97;5.00;;;15.80;99.90;;;;;;5033340;28;20052;-73
2022/09/06 09:10:45;;;;;;;6.13;4.53;;;15.90;99.90;;;;;;5032108;28;20112;-73
2022/09/06 09:13:40;;;;;;;6.07;4.82;;;16.00;99.90;;;;;;5033496;28;20025;-72
2022/09/06 09:16:06;;;;;;;8.02;4.80;;;16.00;99.90;;;;;;5032659;28;20033;-73
2022/09/06 09:18:37;;;;;;;6.10;4.70;;;16.10;99.90;;;;;;5033122;28;20071;-73
2022/09/06 09:21:03;;;;;;;9.60;5.05;;;16.10;99.90;;;;;;5033436;28;20018;-72
2022/09/06 09:23:29;;;;;;;7.28;4.75;;;16.20;99.90;;;;;;5033367;28;20029;-73
2022/09/06 09:26:03;;;;;;;6.53;4.13;;;16.30;99.90;;;;;;5033512;28;20032;-73
2022/09/06 09:28:29;;;;;;;7.20;4.50;;;16.40;99.90;;;;;;5033316;28;20018;-72
2022/09/06 09:30:56;;;;;;;8.02;4.53;;;16.50;99.90;;;;;;5033525;28;20034;-72
2022/09/06 09:33:37;;;;;;;7.25;4.93;;;16.50;99.90;;;;;;5032864;28;20090;-73
2022/09/06 09:36:11;;;;;;;7.03;4.97;;;16.60;99.90;;;;;;5032912;28;20022;-72
2022/09/06 09:38:43;;;;;;;6.03;4.35;;;16.70;99.90;;;;;;5031623;28;20021;-73
2022/09/06 09:41:22;;;;;;;9.25;4.72;;;16.80;99.90;;;;;;5032885;28;20025;-71
2022/09/06 09:44:00;;;;;;;7.68;5.20;;;16.90;99.90;;;;;;5033367;28;20021;-72
2022/09/06 09:46:31;;;;;;;8.82;6.50;;;17.00;99.90;;;;;;5033231;28;20021;-72
2022/09/06 09:49:27;;;;;;;7.95;6.25;;;17.10;99.90;;;;;;5032999;28;20028;-72
2022/09/06 09:52:13;;;;;;;9.60;6.10;;;17.10;99.90;;;;;;5032825;28;20028;-72
2022/09/06 09:54:43;;;;;;;7.32;5.30;;;17.30;99.90;;;;;;5032832;28;20033;-72
2022/09/06 09:57:18;;;;;;;7.45;5.32;;;17.40;99.90;;;;;;5033386;28;20028;-72
2022/09/06 10:00:02;;;;;;;6.82;4.50;;;17.50;99.90;;;;;;5033055;28;20037;-72
2022/09/06 10:02:34;;;;;;;8.63;5.82;;;17.70;99.90;;;;;;5032864;28;20029;-72
2022/09/06 10:05:12;;;;;;;7.78;4.85;;;17.80;99.90;;;;;;5033015;28;20029;-72
2022/09/06 10:07:56;;;;;;;7.47;5.05;;;17.90;99.90;;;;;;5032790;28;20481;-72
2022/09/06 10:10:33;;;;;;;10.02;5.85;;;18.10;99.90;;;;;;5032780;28;20028;-72
2022/09/06 10:13:19;;;;;;;10.57;5.78;;;18.20;99.90;;;;;;5031936;28;20021;-71
2022/09/06 10:15:45;;;;;;;11.30;5.35;;;18.30;99.90;;;;;;5032994;28;20017;-72
2022/09/06 10:18:32;;;;;;;11.25;6.32;;;18.40;99.90;;;;;;5032560;28;20033;-72
2022/09/06 10:21:04;;;;;;;7.50;6.03;;;18.60;99.90;;;;;;5033385;28;20025;-72
2022/09/06 10:23:54;;;;;;;8.20;6.60;;;18.70;99.90;;;;;;5032624;28;20030;-72
2022/09/06 10:26:29;;;;;;;8.52;6.47;;;18.80;99.90;;;;;;5033448;28;20029;-72
2022/09/06 10:29:08;;;;;;;8.65;6.65;;;18.80;99.90;;;;;;5037617;28;20017;-73
2022/09/06 10:32:04;;;;;;;10.68;7.07;;;18.80;99.90;;;;;;5037311;28;20033;-72
2022/09/06 10:34:44;;;;;;;7.60;5.63;;;18.90;99.90;;;;;;5037626;28;20033;-72
2022/09/06 10:37:31;;;;;;;10.82;6.72;;;19.00;99.90;;;;;;5036774;28;20018;-72
2022/09/06 10:40:06;;;;;;;6.80;5.43;;;19.10;99.90;;;;;;5037240;28;20049;-72
2022/09/06 10:42:48;;;;;;;6.80;5.90;;;19.10;99.90;;;;;;5036782;28;20116;-74
2022/09/06 10:45:20;;;;;;;6.68;5.97;;;19.10;99.90;;;;;;5036510;28;20052;-72
2022/09/06 10:48:17;;;;;;;9.73;5.97;;;19.20;99.90;;;;;;5035712;28;20022;-72
2022/09/06 10:51:10;;;;;;;8.75;6.57;;;19.20;99.90;;;;;;5036083;28;20018;-72
2022/09/06 10:54:15;;;;;;;14.15;7.07;;;19.30;99.90;;;;;;5036370;28;20021;-73
2022/09/06 10:57:00;;;;;;;10.45;8.20;;;19.30;99.90;;;;;;5036536;28;20021;-73
2022/09/06 10:59:50;;;;;;;9.45;7.47;;;19.30;99.90;;;;;;5035889;28;20075;-73
2022/09/06 11:02:39;;;;;;;9.77;7.78;;;19.30;99.90;;;;;;5034584;28;20041;-72
2022/09/06 11:05:19;;;;;;;8.50;6.80;;;19.30;99.90;;;;;;5054678;28;20116;-73
2022/09/06 11:08:11;;;;;;;13.15;8.57;;;19.40;99.90;;;;;;5054774;28;20392;-73
2022/09/06 11:10:44;;;;;;;9.73;7.05;;;19.50;99.90;;;;;;5040340;28;20021;-73
2022/09/06 11:13:16;;;;;;;8.43;7.35;;;19.60;99.90;;;;;;5035636;28;20108;-73
2022/09/06 11:16:15;;;;;;;10.73;7.63;;;19.60;99.90;;;;;;5034199;28;20099;-72
2022/09/06 11:18:44;;;;;;;9.90;7.25;;;19.80;99.90;;;;;;5034524;28;20501;-73
2022/09/06 11:21:28;;;;;;;9.95;8.07;;;20.00;99.90;;;;;;5045608;28;20491;-73
2022/09/06 11:24:24;;;;;;;7.70;6.22;;;20.30;99.90;;;;;;5051618;28;20028;-72
2022/09/06 11:27:15;;;;;;;9.15;7.18;;;20.50;99.90;;;;;;5035273;28;20025;-72
2022/09/06 11:29:44;;;;;;;8.40;6.53;;;20.70;99.90;;;;;;5035184;28;20393;-72
2022/09/06 11:32:36;;;;;;;8.35;7.28;;;20.90;99.90;;;;;;5028544;28;20053;-72
2022/09/06 11:35:06;;;;;;;11.23;6.90;;;21.00;99.90;;;;;;5035153;28;20063;-74
2022/09/06 11:37:35;;;;;;;10.43;7.22;;;21.00;99.90;;;;;;5034749;28;20036;-72
2022/09/06 11:40:16;;;;;;;8.93;6.28;;;20.80;99.90;;;;;;5033465;28;20024;-73
2022/09/06 11:42:44;;;;;;;9.20;7.10;;;20.70;99.90;;;;;;5035087;28;20035;-73
2022/09/06 11:45:10;;;;;;;8.07;6.47;;;20.60;99.90;;;;;;5034958;28;20018;-74
2022/09/06 11:47:41;;;;;;;6.85;5.40;;;20.60;99.90;;;;;;5053445;28;20029;-73
2022/09/06 11:50:19;;;;;;;6.95;5.75;;;20.60;99.90;;;;;;5053794;28;20028;-73
2022/09/06 11:52:58;;;;;;;7.18;5.13;;;20.70;99.90;;;;;;5053919;28;20358;-73
2022/09/06 11:55:37;;;;;;;6.10;4.82;;;20.80;99.90;;;;;;5040606;28;20025;-73
2022/09/06 11:58:41;;;;;;;8.05;6.38;;;20.80;99.90;;;;;;5034712;28;20080;-73
2022/09/06 12:01:12;;;;;;;7.28;5.82;;;21.10;99.90;;;;;;5027723;28;20091;-73
2022/09/06 12:03:47;;;;;;;8.68;5.45;;;21.40;99.90;;;;;;5034304;28;20025;-73
2022/09/06 12:06:15;;;;;;;6.03;5.32;;;21.50;99.90;;;;;;5034582;28;20021;-73
2022/09/06 12:08:42;;;;;;;6.50;4.38;;;21.80;99.90;;;;;;5042514;28;20093;-73
2022/09/06 12:11:34;;;;;;;6.68;4.47;;;21.90;99.90;;;;;;5034511;28;20025;-72
2022/09/06 12:14:23;;;;;;;7.90;4.75;;;22.00;99.90;;;;;;5028923;28;20113;-73
2022/09/06 12:16:59;;;;;;;7.07;4.53;;;22.00;99.90;;;;;;5034461;28;20398;-74
2022/09/06 12:19:44;;;;;;;6.00;4.25;;;22.10;99.90;;;;;;5034271;28;20021;-73
2022/09/06 12:22:28;;;;;;;6.50;4.80;;;22.20;99.90;;;;;;5034535;28;20028;-73
2022/09/06 12:24:55;;;;;;;9.20;5.70;;;22.40;99.90;;;;;;5043232;28;20028;-74
2022/09/06 12:27:23;;;;;;;6.95;4.97;;;22.50;99.90;;;;;;5053248;28;20063;-74
2022/09/06 12:30:03;;;;;;;8.20;6.07;;;22.60;99.90;;;;;;5053150;28;20485;-73
2022/09/06 12:32:48;;;;;;;9.07;6.15;;;22.80;99.90;;;;;;5053158;28;20033;-73
2022/09/06 12:35:26;;;;;;;8.10;5.18;;;23.00;99.90;;;;;;5053389;28;20115;-74
2022/09/06 12:38:00;;;;;;;6.72;4.82;;;22.90;99.90;;;;;;5053197;28;20036;-74
2022/09/06 12:40:30;;;;;;;6.50;4.35;;;23.00;99.90;;;;;;5053565;28;20064;-74
2022/09/06 12:42:56;;;;;;;7.55;4.55;;;23.00;99.90;;;;;;5053462;28;20477;-75
2022/09/06 12:45:23;;;;;;;5.93;3.95;;;23.10;99.90;;;;;;5053715;28;20033;-74
2022/09/06 12:47:50;;;;;;;6.53;4.40;;;23.20;99.90;;;;;;5053691;28;20486;-75
2022/09/06 12:50:20;;;;;;;6.78;4.10;;;23.20;99.90;;;;;;5052799;28;20021;-75
2022/09/06 12:52:50;;;;;;;5.72;3.55;;;23.20;99.90;;;;;;5053932;28;20096;-73
2022/09/06 12:55:24;;;;;;;5.77;3.70;;;23.20;99.90;;;;;;5053647;28;20025;-74
2022/09/06 12:57:53;;;;;;;5.22;3.42;;;23.10;99.90;;;;;;5052074;28;20264;-73
2022/09/06 13:00:19;;;;;;;5.60;3.42;;;23.20;99.90;;;;;;5053252;28;20029;-73
2022/09/06 13:03:27;;;;;;;5.72;3.65;;;23.30;99.90;;;;;;5053310;28;20033;-75
2022/09/06 13:05:55;;;;;;;5.55;3.03;;;23.50;99.90;;;;;;5049814;28;20075;-74
2022/09/06 13:08:34;;;;;;;3.65;3.15;;;23.80;99.90;;;;;;5053350;28;20424;-74